sensor_id;sensor_type;location;lat;lon;timestamp;pressure;altitude;pressure_sealevel;temperature;humidity
6778;BME280;3426;52.244;10.534;2022-11-04T00:02:04;99308.34;;;13.47;67.48
6778;BME280;3426;52.244;10.534;2022-11-04T00:04:30;99306.72;;;13.56;66.76
6778;BME280;3426;52.244;10.534;2022-11-04T00:06:57;99313.50;;;13.79;66.13
6778;BME280;3426;52.244;10.534;2022-11-04T00:09:28;99309.28;;;13.77;65.48
6778;BME280;3426;52.244;10.534;2022-11-04T00:11:56;99310.56;;;13.73;66.41
6778;BME280;3426;52.244;10.534;2022-11-04T00:14:42;99302.38;;;13.65;66.67
6778;BME280;3426;52.244;10.534;2022-11-04T00:17:11;99301.06;;;13.49;67.67
6778;BME280;3426;52.244;10.534;2022-11-04T00:19:52;99289.06;;;13.55;66.78
6778;BME280;3426;52.244;10.534;2022-11-04T00:22:40;99287.94;;;13.58;66.73
6778;BME280;3426;52.244;10.534;2022-11-04T00:25:25;99287.06;;;13.47;67.74
6778;BME280;3426;52.244;10.534;2022-11-04T00:28:13;99287.44;;;13.73;66.54
6778;BME280;3426;52.244;10.534;2022-11-04T00:31:00;99297.09;;;13.74;66.49
6778;BME280;3426;52.244;10.534;2022-11-04T00:33:46;99287.69;;;13.70;66.31
6778;BME280;3426;52.244;10.534;2022-11-04T00:36:14;99293.09;;;13.90;65.66
6778;BME280;3426;52.244;10.534;2022-11-04T00:38:41;99286.84;;;13.70;66.29
6778;BME280;3426;52.244;10.534;2022-11-04T00:41:07;99287.69;;;13.70;66.50
6778;BME280;3426;52.244;10.534;2022-11-04T00:44:02;99297.00;;;13.86;66.18
6778;BME280;3426;52.244;10.534;2022-11-04T00:46:31;99302.19;;;14.16;65.43
6778;BME280;3426;52.244;10.534;2022-11-04T00:48:58;99306.66;;;13.87;65.91
6778;BME280;3426;52.244;10.534;2022-11-04T00:51:25;99303.06;;;13.57;66.64
6778;BME280;3426;52.244;10.534;2022-11-04T00:53:52;99286.94;;;14.09;65.55
6778;BME280;3426;52.244;10.534;2022-11-04T00:56:18;99287.63;;;14.11;64.81
6778;BME280;3426;52.244;10.534;2022-11-04T00:58:45;99284.13;;;14.10;64.79
6778;BME280;3426;52.244;10.534;2022-11-04T01:01:14;99279.19;;;13.86;65.57
6778;BME280;3426;52.244;10.534;2022-11-04T01:03:44;99286.38;;;14.15;65.12
6778;BME280;3426;52.244;10.534;2022-11-04T01:06:11;99278.66;;;14.12;64.81
6778;BME280;3426;52.244;10.534;2022-11-04T01:08:37;99281.44;;;14.00;65.26
6778;BME280;3426;52.244;10.534;2022-11-04T01:11:06;99286.22;;;13.97;65.40
6778;BME280;3426;52.244;10.534;2022-11-04T01:13:33;99301.16;;;13.69;66.88
6778;BME280;3426;52.244;10.534;2022-11-04T01:16:00;99290.22;;;13.62;66.74
6778;BME280;3426;52.244;10.534;2022-11-04T01:18:27;99297.25;;;13.73;66.09
6778;BME280;3426;52.244;10.534;2022-11-04T01:20:54;99292.19;;;13.70;66.51
6778;BME280;3426;52.244;10.534;2022-11-04T01:23:20;99293.72;;;13.63;66.62
6778;BME280;3426;52.244;10.534;2022-11-04T01:25:47;99287.81;;;13.59;66.46
6778;BME280;3426;52.244;10.534;2022-11-04T01:28:13;99280.97;;;13.57;66.79
6778;BME280;3426;52.244;10.534;2022-11-04T01:30:40;99284.06;;;13.31;67.83
6778;BME280;3426;52.244;10.534;2022-11-04T01:33:07;99295.56;;;13.82;66.47
6778;BME280;3426;52.244;10.534;2022-11-04T01:35:33;99291.09;;;13.82;66.03
6778;BME280;3426;52.244;10.534;2022-11-04T01:38:00;99280.16;;;13.75;66.55
6778;BME280;3426;52.244;10.534;2022-11-04T01:40:26;99284.22;;;13.79;66.24
6778;BME280;3426;52.244;10.534;2022-11-04T01:42:52;99286.63;;;13.92;66.13
6778;BME280;3426;52.244;10.534;2022-11-04T01:45:20;99285.94;;;14.00;65.90
6778;BME280;3426;52.244;10.534;2022-11-04T01:48:07;99295.34;;;14.14;65.31
6778;BME280;3426;52.244;10.534;2022-11-04T01:50:36;99299.25;;;14.29;65.72
6778;BME280;3426;52.244;10.534;2022-11-04T01:53:10;99301.22;;;14.17;66.00
6778;BME280;3426;52.244;10.534;2022-11-04T01:55:45;99305.69;;;13.97;67.93
6778;BME280;3426;52.244;10.534;2022-11-04T01:58:16;99310.06;;;14.08;68.42
6778;BME280;3426;52.244;10.534;2022-11-04T02:00:43;99304.03;;;14.16;68.54
6778;BME280;3426;52.244;10.534;2022-11-04T02:03:20;99310.66;;;13.62;71.50
6778;BME280;3426;52.244;10.534;2022-11-04T02:05:49;99307.84;;;13.63;71.78
6778;BME280;3426;52.244;10.534;2022-11-04T02:08:16;99314.25;;;13.61;71.75
6778;BME280;3426;52.244;10.534;2022-11-04T02:11:04;99318.09;;;13.68;71.35
6778;BME280;3426;52.244;10.534;2022-11-04T02:13:32;99313.34;;;13.81;71.67
6778;BME280;3426;52.244;10.534;2022-11-04T02:16:13;99314.88;;;13.84;71.71
6778;BME280;3426;52.244;10.534;2022-11-04T02:45:15;99353.41;;;13.79;78.30
6778;BME280;3426;52.244;10.534;2022-11-04T02:47:47;99347.41;;;13.87;79.97
6778;BME280;3426;52.244;10.534;2022-11-04T02:50:27;99339.88;;;14.12;78.98
6778;BME280;3426;52.244;10.534;2022-11-04T02:53:09;99329.69;;;14.26;78.99
6778;BME280;3426;52.244;10.534;2022-11-04T02:55:41;99323.50;;;14.26;78.85
6778;BME280;3426;52.244;10.534;2022-11-04T02:58:14;99316.09;;;14.39;78.49
6778;BME280;3426;52.244;10.534;2022-11-04T03:00:44;99316.22;;;14.38;79.07
6778;BME280;3426;52.244;10.534;2022-11-04T03:03:14;99323.81;;;14.42;79.04
6778;BME280;3426;52.244;10.534;2022-11-04T03:05:45;99325.06;;;14.38;79.24
6778;BME280;3426;52.244;10.534;2022-11-04T03:08:21;99320.84;;;14.45;79.16
6778;BME280;3426;52.244;10.534;2022-11-04T03:10:54;99320.03;;;14.54;78.20
6778;BME280;3426;52.244;10.534;2022-11-04T03:15:58;99310.38;;;14.53;78.79
6778;BME280;3426;52.244;10.534;2022-11-04T03:18:35;99312.47;;;14.60;77.91
6778;BME280;3426;52.244;10.534;2022-11-04T03:21:06;99320.31;;;14.61;77.89
6778;BME280;3426;52.244;10.534;2022-11-04T03:23:34;99322.81;;;14.63;77.88
6778;BME280;3426;52.244;10.534;2022-11-04T03:26:12;99318.91;;;14.57;78.28
6778;BME280;3426;52.244;10.534;2022-11-04T03:29:08;99313.31;;;14.50;78.21
6778;BME280;3426;52.244;10.534;2022-11-04T03:31:50;99319.06;;;14.55;77.83
6778;BME280;3426;52.244;10.534;2022-11-04T03:34:20;99329.56;;;14.57;78.07
6778;BME280;3426;52.244;10.534;2022-11-04T03:36:47;99343.19;;;14.54;77.69
6778;BME280;3426;52.244;10.534;2022-11-04T03:39:13;99339.50;;;14.45;78.88
6778;BME280;3426;52.244;10.534;2022-11-04T03:41:45;99366.88;;;14.47;78.45
6778;BME280;3426;52.244;10.534;2022-11-04T03:44:13;99365.34;;;14.54;78.67
6778;BME280;3426;52.244;10.534;2022-11-04T03:46:40;99379.09;;;14.60;78.65
6778;BME280;3426;52.244;10.534;2022-11-04T03:49:07;99389.16;;;14.56;78.68
6778;BME280;3426;52.244;10.534;2022-11-04T03:51:34;99405.53;;;14.42;78.72
6778;BME280;3426;52.244;10.534;2022-11-04T03:54:01;99408.19;;;14.32;78.91
6778;BME280;3426;52.244;10.534;2022-11-04T03:59:09;99415.34;;;14.41;79.71
6778;BME280;3426;52.244;10.534;2022-11-04T04:04:56;99410.56;;;14.25;81.15
6778;BME280;3426;52.244;10.534;2022-11-04T04:07:36;99409.16;;;14.31;80.09
6778;BME280;3426;52.244;10.534;2022-11-04T04:12:58;99431.69;;;14.08;80.53
6778;BME280;3426;52.244;10.534;2022-11-04T04:15:58;99409.66;;;14.05;80.42
6778;BME280;3426;52.244;10.534;2022-11-04T04:18:34;99418.38;;;13.77;82.23
6778;BME280;3426;52.244;10.534;2022-11-04T04:21:06;99423.06;;;13.94;79.96
6778;BME280;3426;52.244;10.534;2022-11-04T04:23:35;99439.88;;;13.95;80.81
6778;BME280;3426;52.244;10.534;2022-11-04T04:26:23;99446.84;;;13.86;81.00
6778;BME280;3426;52.244;10.534;2022-11-04T04:29:09;99445.75;;;13.89;79.83
6778;BME280;3426;52.244;10.534;2022-11-04T04:31:37;99452.47;;;13.93;79.49
6778;BME280;3426;52.244;10.534;2022-11-04T04:34:24;99448.59;;;14.06;78.72
6778;BME280;3426;52.244;10.534;2022-11-04T04:39:34;99452.84;;;14.09;78.05
6778;BME280;3426;52.244;10.534;2022-11-04T04:42:20;99456.06;;;13.82;78.55
6778;BME280;3426;52.244;10.534;2022-11-04T04:45:07;99458.91;;;13.60;78.83
6778;BME280;3426;52.244;10.534;2022-11-04T04:47:34;99465.03;;;14.12;77.33
6778;BME280;3426;52.244;10.534;2022-11-04T04:50:03;99458.25;;;13.67;78.01
6778;BME280;3426;52.244;10.534;2022-11-04T04:52:32;99461.69;;;13.79;77.75
6778;BME280;3426;52.244;10.534;2022-11-04T04:54:59;99460.78;;;13.69;77.08
6778;BME280;3426;52.244;10.534;2022-11-04T04:57:26;99471.81;;;13.64;79.01
6778;BME280;3426;52.244;10.534;2022-11-04T04:59:52;99464.44;;;13.77;77.24
6778;BME280;3426;52.244;10.534;2022-11-04T05:02:19;99470.44;;;14.00;76.00
6778;BME280;3426;52.244;10.534;2022-11-04T05:04:45;99471.97;;;13.63;76.39
6778;BME280;3426;52.244;10.534;2022-11-04T05:07:12;99468.75;;;13.99;74.96
6778;BME280;3426;52.244;10.534;2022-11-04T05:09:38;99470.34;;;14.12;73.94
6778;BME280;3426;52.244;10.534;2022-11-04T05:12:05;99474.94;;;14.00;74.89
6778;BME280;3426;52.244;10.534;2022-11-04T05:14:31;99484.44;;;13.93;74.47
6778;BME280;3426;52.244;10.534;2022-11-04T05:16:58;99485.84;;;13.97;73.67
6778;BME280;3426;52.244;10.534;2022-11-04T05:19:24;99488.84;;;13.52;74.41
6778;BME280;3426;52.244;10.534;2022-11-04T05:21:51;99498.66;;;13.82;74.01
6778;BME280;3426;52.244;10.534;2022-11-04T05:24:18;99506.34;;;13.34;75.66
6778;BME280;3426;52.244;10.534;2022-11-04T05:26:44;99501.78;;;13.66;73.85
6778;BME280;3426;52.244;10.534;2022-11-04T05:29:10;99503.75;;;13.43;75.10
6778;BME280;3426;52.244;10.534;2022-11-04T05:31:37;99505.19;;;13.68;73.81
6778;BME280;3426;52.244;10.534;2022-11-04T05:34:04;99509.50;;;13.48;74.61
6778;BME280;3426;52.244;10.534;2022-11-04T05:36:31;99514.31;;;13.75;73.93
6778;BME280;3426;52.244;10.534;2022-11-04T05:39:00;99519.19;;;13.49;74.67
6778;BME280;3426;52.244;10.534;2022-11-04T05:41:27;99522.25;;;13.45;74.12
6778;BME280;3426;52.244;10.534;2022-11-04T05:43:55;99533.72;;;13.13;75.81
6778;BME280;3426;52.244;10.534;2022-11-04T05:46:23;99536.69;;;13.31;74.18
6778;BME280;3426;52.244;10.534;2022-11-04T05:48:50;99544.16;;;13.58;73.29
6778;BME280;3426;52.244;10.534;2022-11-04T05:51:19;99549.50;;;13.26;73.61
6778;BME280;3426;52.244;10.534;2022-11-04T05:53:46;99548.00;;;13.01;74.54
6778;BME280;3426;52.244;10.534;2022-11-04T05:56:12;99551.47;;;13.13;73.49
6778;BME280;3426;52.244;10.534;2022-11-04T05:58:39;99548.75;;;12.92;74.08
6778;BME280;3426;52.244;10.534;2022-11-04T06:01:38;99550.31;;;13.06;72.56
6778;BME280;3426;52.244;10.534;2022-11-04T06:04:06;99559.59;;;13.22;71.74
6778;BME280;3426;52.244;10.534;2022-11-04T06:06:34;99561.59;;;13.19;72.30
6778;BME280;3426;52.244;10.534;2022-11-04T06:09:01;99569.03;;;12.93;74.55
6778;BME280;3426;52.244;10.534;2022-11-04T06:11:29;99569.38;;;13.22;73.15
6778;BME280;3426;52.244;10.534;2022-11-04T06:13:56;99582.16;;;13.49;71.82
6778;BME280;3426;52.244;10.534;2022-11-04T06:16:23;99607.41;;;13.34;71.33
6778;BME280;3426;52.244;10.534;2022-11-04T06:18:50;99622.56;;;12.99;71.90
6778;BME280;3426;52.244;10.534;2022-11-04T06:21:29;99631.47;;;13.21;71.34
6778;BME280;3426;52.244;10.534;2022-11-04T06:23:57;99609.69;;;13.27;70.79
6778;BME280;3426;52.244;10.534;2022-11-04T06:26:26;99568.66;;;13.09;71.02
6778;BME280;3426;52.244;10.534;2022-11-04T06:28:54;99576.56;;;13.31;70.57
6778;BME280;3426;52.244;10.534;2022-11-04T06:31:20;99577.38;;;13.43;71.09
6778;BME280;3426;52.244;10.534;2022-11-04T06:33:47;99569.41;;;12.99;73.13
6778;BME280;3426;52.244;10.534;2022-11-04T06:36:15;99590.69;;;12.99;73.85
6778;BME280;3426;52.244;10.534;2022-11-04T06:38:41;99601.28;;;13.11;72.38
6778;BME280;3426;52.244;10.534;2022-11-04T06:41:14;99618.13;;;12.78;72.69
6778;BME280;3426;52.244;10.534;2022-11-04T06:43:40;99613.13;;;13.07;72.39
6778;BME280;3426;52.244;10.534;2022-11-04T06:46:23;99615.53;;;13.21;71.88
6778;BME280;3426;52.244;10.534;2022-11-04T06:48:50;99609.13;;;13.23;71.70
6778;BME280;3426;52.244;10.534;2022-11-04T06:51:16;99624.34;;;13.21;71.00
6778;BME280;3426;52.244;10.534;2022-11-04T06:53:43;99638.53;;;12.43;73.89
6778;BME280;3426;52.244;10.534;2022-11-04T06:56:09;99644.75;;;13.21;71.63
6778;BME280;3426;52.244;10.534;2022-11-04T06:58:36;99630.88;;;13.29;72.13
6778;BME280;3426;52.244;10.534;2022-11-04T07:01:03;99631.91;;;13.37;70.72
6778;BME280;3426;52.244;10.534;2022-11-04T07:03:38;99623.69;;;13.40;70.92
6778;BME280;3426;52.244;10.534;2022-11-04T07:06:06;99629.59;;;13.44;71.27
6778;BME280;3426;52.244;10.534;2022-11-04T07:08:33;99623.66;;;13.51;70.79
6778;BME280;3426;52.244;10.534;2022-11-04T07:11:00;99623.13;;;13.58;71.16
6778;BME280;3426;52.244;10.534;2022-11-04T07:13:27;99625.44;;;13.62;71.65
6778;BME280;3426;52.244;10.534;2022-11-04T07:15:53;99623.22;;;13.35;71.84
6778;BME280;3426;52.244;10.534;2022-11-04T07:18:20;99612.41;;;13.05;72.20
6778;BME280;3426;52.244;10.534;2022-11-04T07:20:46;99620.41;;;12.93;74.00
6778;BME280;3426;52.244;10.534;2022-11-04T07:23:13;99616.41;;;12.99;72.19
6778;BME280;3426;52.244;10.534;2022-11-04T07:25:39;99617.50;;;12.96;72.78
6778;BME280;3426;52.244;10.534;2022-11-04T07:28:06;99617.31;;;13.20;71.93
6778;BME280;3426;52.244;10.534;2022-11-04T07:30:33;99621.78;;;13.31;70.80
6778;BME280;3426;52.244;10.534;2022-11-04T07:32:59;99631.72;;;13.29;72.48
6778;BME280;3426;52.244;10.534;2022-11-04T07:35:26;99633.69;;;12.93;72.17
6778;BME280;3426;52.244;10.534;2022-11-04T07:37:53;99631.28;;;12.68;74.18
6778;BME280;3426;52.244;10.534;2022-11-04T07:40:20;99633.75;;;13.14;72.10
6778;BME280;3426;52.244;10.534;2022-11-04T07:42:46;99646.19;;;13.36;71.10
6778;BME280;3426;52.244;10.534;2022-11-04T07:45:13;99656.72;;;13.26;71.59
6778;BME280;3426;52.244;10.534;2022-11-04T07:47:39;99662.81;;;13.49;70.98
6778;BME280;3426;52.244;10.534;2022-11-04T07:50:06;99667.97;;;12.96;71.72
6778;BME280;3426;52.244;10.534;2022-11-04T07:52:36;99669.84;;;13.50;69.70
6778;BME280;3426;52.244;10.534;2022-11-04T07:55:04;99686.88;;;13.48;69.43
6778;BME280;3426;52.244;10.534;2022-11-04T07:57:31;99681.47;;;13.38;71.62
6778;BME280;3426;52.244;10.534;2022-11-04T07:59:57;99669.34;;;13.57;69.66
6778;BME280;3426;52.244;10.534;2022-11-04T08:02:23;99673.38;;;13.40;70.72
6778;BME280;3426;52.244;10.534;2022-11-04T08:04:56;99671.81;;;13.26;70.03
6778;BME280;3426;52.244;10.534;2022-11-04T08:07:22;99679.50;;;13.51;70.00
6778;BME280;3426;52.244;10.534;2022-11-04T08:09:49;99677.59;;;13.42;69.61
6778;BME280;3426;52.244;10.534;2022-11-04T08:12:16;99685.50;;;13.65;69.13
6778;BME280;3426;52.244;10.534;2022-11-04T08:14:42;99693.22;;;12.91;70.11
6778;BME280;3426;52.244;10.534;2022-11-04T08:17:09;99688.91;;;13.56;68.77
6778;BME280;3426;52.244;10.534;2022-11-04T08:19:35;99697.00;;;13.22;68.97
6778;BME280;3426;52.244;10.534;2022-11-04T08:22:02;99694.06;;;13.36;70.28
6778;BME280;3426;52.244;10.534;2022-11-04T08:24:28;99701.34;;;13.23;69.39
6778;BME280;3426;52.244;10.534;2022-11-04T08:26:54;99695.41;;;13.31;70.02
6778;BME280;3426;52.244;10.534;2022-11-04T08:29:21;99695.88;;;13.36;69.94
6778;BME280;3426;52.244;10.534;2022-11-04T08:31:48;99702.59;;;13.83;67.92
6778;BME280;3426;52.244;10.534;2022-11-04T08:34:15;99700.66;;;13.53;70.73
6778;BME280;3426;52.244;10.534;2022-11-04T08:36:44;99698.72;;;13.87;68.85
6778;BME280;3426;52.244;10.534;2022-11-04T08:39:11;99702.28;;;13.44;70.24
6778;BME280;3426;52.244;10.534;2022-11-04T08:41:40;99711.91;;;13.89;67.46
6778;BME280;3426;52.244;10.534;2022-11-04T08:44:11;99710.81;;;13.59;67.25
6778;BME280;3426;52.244;10.534;2022-11-04T08:46:40;99704.59;;;14.02;66.11
6778;BME280;3426;52.244;10.534;2022-11-04T08:49:07;99715.97;;;14.46;65.13
6778;BME280;3426;52.244;10.534;2022-11-04T08:51:41;99716.91;;;14.56;66.31
6778;BME280;3426;52.244;10.534;2022-11-04T08:54:09;99724.19;;;14.54;64.73
6778;BME280;3426;52.244;10.534;2022-11-04T08:56:38;99732.88;;;14.56;63.61
6778;BME280;3426;52.244;10.534;2022-11-04T08:59:05;99731.28;;;14.95;65.42
6778;BME280;3426;52.244;10.534;2022-11-04T09:01:34;99731.00;;;14.98;64.54
6778;BME280;3426;52.244;10.534;2022-11-04T09:04:02;99728.50;;;14.34;64.41
6778;BME280;3426;52.244;10.534;2022-11-04T09:06:32;99730.69;;;14.29;65.00
6778;BME280;3426;52.244;10.534;2022-11-04T09:08:59;99735.09;;;14.30;64.10
6778;BME280;3426;52.244;10.534;2022-11-04T09:11:31;99722.78;;;14.39;65.83
6778;BME280;3426;52.244;10.534;2022-11-04T09:14:00;99708.28;;;13.90;66.67
6778;BME280;3426;52.244;10.534;2022-11-04T09:16:31;99706.25;;;14.35;66.53
6778;BME280;3426;52.244;10.534;2022-11-04T09:18:59;99694.25;;;13.88;66.35
6778;BME280;3426;52.244;10.534;2022-11-04T09:21:26;99701.94;;;14.23;66.20
6778;BME280;3426;52.244;10.534;2022-11-04T09:23:54;99703.03;;;13.99;66.83
6778;BME280;3426;52.244;10.534;2022-11-04T09:26:21;99696.81;;;14.31;64.54
6778;BME280;3426;52.244;10.534;2022-11-04T09:28:55;99697.00;;;13.97;66.12
6778;BME280;3426;52.244;10.534;2022-11-04T09:31:24;99702.75;;;13.82;68.12
6778;BME280;3426;52.244;10.534;2022-11-04T09:33:55;99698.63;;;14.30;66.17
6778;BME280;3426;52.244;10.534;2022-11-04T09:36:22;99698.63;;;14.10;65.67
6778;BME280;3426;52.244;10.534;2022-11-04T09:38:49;99710.75;;;14.23;65.19
6778;BME280;3426;52.244;10.534;2022-11-04T09:44:50;99704.38;;;14.47;63.89
6778;BME280;3426;52.244;10.534;2022-11-04T09:47:41;99696.09;;;14.29;66.22
6778;BME280;3426;52.244;10.534;2022-11-04T09:50:20;99681.59;;;14.22;64.81
6778;BME280;3426;52.244;10.534;2022-11-04T09:52:57;99674.66;;;14.10;66.72
6778;BME280;3426;52.244;10.534;2022-11-04T09:56:00;99661.53;;;14.60;64.49
6778;BME280;3426;52.244;10.534;2022-11-04T09:58:33;99659.72;;;14.60;64.22
6778;BME280;3426;52.244;10.534;2022-11-04T10:09:22;99676.59;;;14.28;66.49
6778;BME280;3426;52.244;10.534;2022-11-04T10:12:10;99677.44;;;14.29;67.00
6778;BME280;3426;52.244;10.534;2022-11-04T10:14:51;99676.81;;;14.88;64.00
6778;BME280;3426;52.244;10.534;2022-11-04T10:17:55;99686.34;;;14.91;63.19
6778;BME280;3426;52.244;10.534;2022-11-04T10:22:56;99710.16;;;14.41;65.22
6778;BME280;3426;52.244;10.534;2022-11-04T10:27:54;99712.97;;;14.39;63.76
6778;BME280;3426;52.244;10.534;2022-11-04T10:30:22;99721.88;;;14.08;61.98
6778;BME280;3426;52.244;10.534;2022-11-04T10:33:25;99724.09;;;13.59;65.19
6778;BME280;3426;52.244;10.534;2022-11-04T10:36:08;99731.56;;;14.09;63.76
6778;BME280;3426;52.244;10.534;2022-11-04T10:38:47;99720.75;;;14.10;62.41
6778;BME280;3426;52.244;10.534;2022-11-04T10:43:46;99726.25;;;14.71;60.25
6778;BME280;3426;52.244;10.534;2022-11-04T10:51:24;99735.16;;;13.87;61.71
6778;BME280;3426;52.244;10.534;2022-11-04T10:53:56;99733.97;;;13.79;61.71
6778;BME280;3426;52.244;10.534;2022-11-04T10:56:34;99738.22;;;13.71;62.59
6778;BME280;3426;52.244;10.534;2022-11-04T11:01:54;99725.13;;;13.13;64.33
6778;BME280;3426;52.244;10.534;2022-11-04T11:04:33;99721.97;;;14.06;62.48
6778;BME280;3426;52.244;10.534;2022-11-04T11:07:04;99729.84;;;14.28;61.56
6778;BME280;3426;52.244;10.534;2022-11-04T11:09:54;99729.13;;;14.05;62.00
6778;BME280;3426;52.244;10.534;2022-11-04T11:12:27;99730.34;;;14.13;62.40
6778;BME280;3426;52.244;10.534;2022-11-04T11:15:26;99727.88;;;13.57;63.44
6778;BME280;3426;52.244;10.534;2022-11-04T11:20:44;99749.72;;;14.56;62.25
6778;BME280;3426;52.244;10.534;2022-11-04T11:26:03;99753.47;;;13.69;63.54
6778;BME280;3426;52.244;10.534;2022-11-04T11:28:31;99752.75;;;13.99;63.04
6778;BME280;3426;52.244;10.534;2022-11-04T11:31:08;99746.63;;;13.87;61.91
6778;BME280;3426;52.244;10.534;2022-11-04T11:33:45;99744.69;;;13.89;63.55
6778;BME280;3426;52.244;10.534;2022-11-04T11:36:23;99750.38;;;14.17;62.28
6778;BME280;3426;52.244;10.534;2022-11-04T11:39:02;99747.94;;;13.38;63.73
6778;BME280;3426;52.244;10.534;2022-11-04T11:41:33;99748.88;;;14.03;62.97
6778;BME280;3426;52.244;10.534;2022-11-04T11:46:55;99751.75;;;13.79;64.42
6778;BME280;3426;52.244;10.534;2022-11-04T11:49:33;99750.75;;;14.12;62.95
6778;BME280;3426;52.244;10.534;2022-11-04T11:55:02;99744.28;;;13.73;62.86
6778;BME280;3426;52.244;10.534;2022-11-04T11:57:32;99747.50;;;14.62;61.07
6778;BME280;3426;52.244;10.534;2022-11-04T12:00:04;99762.50;;;13.23;64.58
6778;BME280;3426;52.244;10.534;2022-11-04T12:05:35;99756.56;;;14.38;60.79
6778;BME280;3426;52.244;10.534;2022-11-04T12:08:38;99755.09;;;14.24;60.86
6778;BME280;3426;52.244;10.534;2022-11-04T12:23:19;99755.63;;;14.60;58.83
6778;BME280;3426;52.244;10.534;2022-11-04T12:26:00;99760.81;;;13.76;61.54
6778;BME280;3426;52.244;10.534;2022-11-04T12:28:58;99761.31;;;14.35;59.60
6778;BME280;3426;52.244;10.534;2022-11-04T12:47:46;99786.03;;;14.78;59.46
6778;BME280;3426;52.244;10.534;2022-11-04T12:50:36;99782.97;;;15.04;59.44
6778;BME280;3426;52.244;10.534;2022-11-04T12:56:08;99791.22;;;15.01;58.86
6778;BME280;3426;52.244;10.534;2022-11-04T13:01:17;99779.84;;;15.70;56.87
6778;BME280;3426;52.244;10.534;2022-11-04T13:03:49;99784.44;;;14.34;59.30
6778;BME280;3426;52.244;10.534;2022-11-04T13:08:52;99791.28;;;15.10;58.09
6778;BME280;3426;52.244;10.534;2022-11-04T13:11:36;99794.94;;;15.19;57.95
6778;BME280;3426;52.244;10.534;2022-11-04T13:16:43;99787.09;;;15.18;58.85
6778;BME280;3426;52.244;10.534;2022-11-04T13:19:25;99798.09;;;15.34;57.46
6778;BME280;3426;52.244;10.534;2022-11-04T13:22:02;99789.13;;;15.66;55.85
6778;BME280;3426;52.244;10.534;2022-11-04T13:24:32;99790.91;;;15.25;57.82
6778;BME280;3426;52.244;10.534;2022-11-04T13:27:12;99795.53;;;15.23;57.70
6778;BME280;3426;52.244;10.534;2022-11-04T13:29:41;99794.72;;;15.62;56.98
6778;BME280;3426;52.244;10.534;2022-11-04T13:32:27;99796.78;;;15.49;56.59
6778;BME280;3426;52.244;10.534;2022-11-04T13:35:19;99802.72;;;15.01;59.02
6778;BME280;3426;52.244;10.534;2022-11-04T13:37:56;99802.34;;;14.85;59.47
6778;BME280;3426;52.244;10.534;2022-11-04T13:48:34;99800.56;;;15.16;59.05
6778;BME280;3426;52.244;10.534;2022-11-04T13:51:09;99804.38;;;14.93;59.23
6778;BME280;3426;52.244;10.534;2022-11-04T13:53:53;99808.78;;;15.34;57.66
6778;BME280;3426;52.244;10.534;2022-11-04T13:56:36;99814.97;;;14.83;58.61
6778;BME280;3426;52.244;10.534;2022-11-04T14:01:33;99824.00;;;14.39;60.15
6778;BME280;3426;52.244;10.534;2022-11-04T14:14:34;99855.69;;;14.64;59.40
6778;BME280;3426;52.244;10.534;2022-11-04T14:17:00;99862.19;;;14.92;58.63
6778;BME280;3426;52.244;10.534;2022-11-04T14:22:28;99875.66;;;15.42;57.12
6778;BME280;3426;52.244;10.534;2022-11-04T14:24:57;99862.59;;;14.55;59.67
6778;BME280;3426;52.244;10.534;2022-11-04T14:29:53;99868.78;;;14.45;59.65
6778;BME280;3426;52.244;10.534;2022-11-04T14:32:24;99872.38;;;15.08;57.94
6778;BME280;3426;52.244;10.534;2022-11-04T14:35:00;99873.53;;;14.73;57.42
6778;BME280;3426;52.244;10.534;2022-11-04T14:37:34;99880.50;;;15.06;57.29
6778;BME280;3426;52.244;10.534;2022-11-04T14:40:04;99878.53;;;14.23;59.68
6778;BME280;3426;52.244;10.534;2022-11-04T14:42:44;99889.88;;;14.80;58.27
6778;BME280;3426;52.244;10.534;2022-11-04T14:45:30;99887.06;;;15.02;57.89
6778;BME280;3426;52.244;10.534;2022-11-04T14:48:16;99888.69;;;14.73;58.43
6778;BME280;3426;52.244;10.534;2022-11-04T14:50:46;99886.63;;;14.97;58.33
6778;BME280;3426;52.244;10.534;2022-11-04T14:53:22;99903.84;;;15.14;58.10
6778;BME280;3426;52.244;10.534;2022-11-04T14:58:30;99896.44;;;15.18;57.97
6778;BME280;3426;52.244;10.534;2022-11-04T15:01:00;99898.94;;;14.56;59.60
6778;BME280;3426;52.244;10.534;2022-11-04T15:03:36;99909.13;;;14.83;59.38
6778;BME280;3426;52.244;10.534;2022-11-04T15:06:27;99902.75;;;15.17;58.31
6778;BME280;3426;52.244;10.534;2022-11-04T15:09:24;99903.47;;;14.77;59.76
6778;BME280;3426;52.244;10.534;2022-11-04T15:12:16;99906.50;;;14.29;60.50
6778;BME280;3426;52.244;10.534;2022-11-04T15:18:14;99913.00;;;14.79;59.59
6778;BME280;3426;52.244;10.534;2022-11-04T15:20:50;99912.59;;;15.16;58.58
6778;BME280;3426;52.244;10.534;2022-11-04T15:23:32;99915.13;;;15.18;58.20
6778;BME280;3426;52.244;10.534;2022-11-04T15:26:00;99928.34;;;14.66;59.77
6778;BME280;3426;52.244;10.534;2022-11-04T15:28:39;99927.06;;;15.02;58.89
6778;BME280;3426;52.244;10.534;2022-11-04T15:33:42;99938.03;;;14.99;59.00
6778;BME280;3426;52.244;10.534;2022-11-04T15:36:16;99936.44;;;14.76;59.52
6778;BME280;3426;52.244;10.534;2022-11-04T15:38:50;99942.59;;;14.76;59.88
6778;BME280;3426;52.244;10.534;2022-11-04T15:41:19;99940.28;;;14.83;59.57
6778;BME280;3426;52.244;10.534;2022-11-04T15:44:16;99944.75;;;14.82;59.54
6778;BME280;3426;52.244;10.534;2022-11-04T15:46:48;99946.81;;;14.79;59.85
6778;BME280;3426;52.244;10.534;2022-11-04T15:49:23;99945.13;;;14.78;59.93
6778;BME280;3426;52.244;10.534;2022-11-04T15:51:53;99947.94;;;14.76;59.71
6778;BME280;3426;52.244;10.534;2022-11-04T15:54:25;99946.75;;;14.69;60.31
6778;BME280;3426;52.244;10.534;2022-11-04T15:56:57;99942.28;;;14.70;60.07
6778;BME280;3426;52.244;10.534;2022-11-04T15:59:32;99954.00;;;14.67;60.47
6778;BME280;3426;52.244;10.534;2022-11-04T16:02:01;99953.16;;;14.67;60.38
6778;BME280;3426;52.244;10.534;2022-11-04T16:04:29;99955.38;;;14.62;60.52
6778;BME280;3426;52.244;10.534;2022-11-04T16:09:50;99950.78;;;14.64;60.67
6778;BME280;3426;52.244;10.534;2022-11-04T16:12:25;99957.06;;;14.63;60.71
6778;BME280;3426;52.244;10.534;2022-11-04T16:14:54;99958.50;;;14.67;60.92
6778;BME280;3426;52.244;10.534;2022-11-04T16:17:21;99968.59;;;14.52;61.38